createdAt,value
2017-12-06T00:00:51.483Z,17.40
2017-12-06T00:03:20.884Z,16.37
2017-12-06T00:05:51.369Z,14.77
2017-12-06T00:08:20.822Z,15.83
2017-12-06T00:10:50.592Z,17.00
2017-12-06T00:13:25.180Z,17.17
2017-12-06T00:15:54.695Z,18.70
2017-12-06T00:18:23.656Z,17.03
2017-12-06T00:20:52.655Z,14.63
2017-12-06T00:23:21.640Z,19.17
2017-12-06T00:25:50.653Z,13.80
2017-12-06T00:28:20.375Z,16.20
2017-12-06T00:30:50.106Z,16.10
2017-12-06T00:33:19.086Z,17.23
2017-12-06T00:35:48.086Z,18.13
2017-12-06T00:38:17.158Z,16.23
2017-12-06T00:40:46.215Z,19.60
2017-12-06T00:43:15.285Z,17.07
2017-12-06T00:45:44.687Z,17.97
2017-12-06T00:48:14.422Z,15.20
2017-12-06T00:50:43.823Z,16.73
2017-12-06T00:53:12.829Z,16.23
2017-12-06T00:55:41.812Z,19.00
2017-12-06T00:58:10.844Z,14.20
2017-12-06T01:00:45.402Z,18.23
2017-12-06T01:03:14.439Z,15.63
2017-12-06T01:05:43.465Z,15.20
2017-12-06T01:08:12.527Z,15.17
2017-12-06T01:10:41.595Z,16.33
2017-12-06T01:13:10.609Z,13.73
2017-12-06T01:15:40.023Z,16.87
2017-12-06T01:18:09.389Z,13.67
2017-12-06T01:20:38.388Z,16.80
2017-12-06T01:23:07.357Z,14.67
2017-12-06T01:25:36.355Z,16.70
2017-12-06T01:28:05.363Z,13.40
2017-12-06T01:30:34.389Z,13.90
2017-12-06T01:33:03.368Z,14.87
2017-12-06T01:35:33.182Z,16.70
2017-12-06T01:38:02.940Z,15.70
2017-12-06T01:40:32.746Z,18.83
2017-12-06T01:43:01.752Z,14.90
2017-12-06T01:45:31.653Z,12.60
2017-12-06T01:48:01.043Z,14.70
2017-12-06T01:50:30.016Z,17.90
2017-12-06T01:52:59.781Z,16.10
2017-12-06T01:55:29.543Z,17.10
2017-12-06T01:57:58.545Z,15.33
2017-12-06T02:00:27.613Z,15.73
2017-12-06T02:02:56.612Z,14.23
2017-12-06T02:05:25.625Z,17.37
2017-12-06T02:07:54.647Z,16.40
2017-12-06T02:10:23.685Z,13.23
2017-12-06T02:12:52.757Z,17.47
2017-12-06T02:15:21.723Z,14.60
2017-12-06T02:17:51.558Z,13.50
2017-12-06T02:20:20.551Z,14.50
2017-12-06T02:22:50.403Z,18.73
2017-12-06T02:25:20.356Z,18.57
2017-12-06T02:27:49.334Z,15.13
2017-12-06T02:30:18.758Z,14.10
2017-12-06T02:32:48.492Z,12.43
2017-12-06T02:35:17.542Z,13.07
2017-12-06T02:37:46.525Z,17.77
2017-12-06T02:40:27.412Z,15.83
2017-12-06T02:43:09.465Z,16.03
2017-12-06T02:45:39.242Z,14.17
2017-12-06T02:48:08.619Z,12.67
2017-12-06T02:50:37.697Z,14.57
2017-12-06T02:53:07.205Z,14.87
2017-12-06T02:58:10.926Z,15.30
2017-12-06T03:00:39.949Z,14.93
2017-12-06T03:03:08.985Z,18.23
2017-12-06T03:05:37.984Z,14.90
2017-12-06T03:08:07.040Z,16.73
2017-12-06T03:10:36.051Z,14.83
2017-12-06T03:13:05.053Z,14.47
2017-12-06T03:15:34.824Z,13.30
2017-12-06T03:18:03.850Z,17.83
2017-12-06T03:20:33.261Z,18.50
2017-12-06T03:23:02.640Z,15.93
2017-12-06T03:25:31.654Z,15.37
2017-12-06T03:28:01.465Z,16.13
2017-12-06T03:30:30.434Z,18.17
2017-12-06T03:32:59.833Z,14.60
2017-12-06T03:35:29.580Z,16.40
2017-12-06T03:37:59.361Z,13.67
2017-12-06T03:40:28.454Z,15.10
2017-12-06T03:42:57.844Z,14.47
2017-12-06T03:45:27.632Z,15.57
2017-12-06T03:47:56.613Z,14.27
2017-12-06T03:50:25.620Z,16.80
2017-12-06T03:52:54.637Z,14.17
2017-12-06T03:55:24.262Z,14.53
2017-12-06T03:57:53.609Z,16.03
2017-12-06T04:00:22.623Z,14.40
2017-12-06T04:02:51.603Z,18.20
2017-12-06T04:05:20.649Z,14.40
2017-12-06T04:07:49.744Z,14.00
2017-12-06T04:10:19.506Z,14.70
2017-12-06T04:12:49.652Z,13.73
2017-12-06T04:15:18.668Z,14.53
2017-12-06T04:17:48.435Z,16.53
2017-12-06T04:20:17.429Z,13.67
2017-12-06T04:22:46.419Z,15.77
2017-12-06T04:25:15.447Z,14.20
2017-12-06T04:27:44.491Z,16.00
2017-12-06T04:30:14.343Z,13.13
2017-12-06T04:32:43.760Z,16.07
2017-12-06T04:35:13.546Z,15.60
2017-12-06T04:37:42.515Z,13.00
2017-12-06T04:40:12.291Z,13.57
2017-12-06T04:42:41.678Z,13.37
2017-12-06T04:45:11.403Z,14.97
2017-12-06T04:47:40.393Z,12.53
2017-12-06T04:50:10.186Z,12.17
2017-12-06T04:52:39.596Z,13.50
2017-12-06T04:55:09.363Z,13.63
2017-12-06T04:57:38.374Z,12.37
2017-12-06T05:00:07.944Z,14.27
2017-12-06T05:02:37.700Z,13.13
2017-12-06T05:05:06.770Z,12.97
2017-12-06T05:07:36.640Z,10.87
2017-12-06T05:10:05.645Z,12.23
2017-12-06T05:12:34.710Z,12.90
2017-12-06T05:15:03.714Z,14.30
2017-12-06T05:17:33.512Z,16.63
2017-12-06T05:20:02.624Z,11.70
2017-12-06T05:22:31.711Z,14.27
2017-12-06T05:25:01.471Z,14.30
2017-12-06T05:27:30.466Z,17.00
2017-12-06T05:30:00.116Z,14.20
2017-12-06T05:32:29.498Z,15.27
2017-12-06T05:34:58.485Z,12.67
2017-12-06T05:37:27.532Z,13.83
2017-12-06T05:39:56.515Z,14.70
2017-12-06T05:42:25.516Z,15.30
2017-12-06T05:44:54.516Z,12.40
2017-12-06T05:47:23.511Z,10.97
2017-12-06T05:49:52.539Z,12.43
2017-12-06T05:52:21.516Z,10.83
2017-12-06T05:54:50.905Z,10.17
2017-12-06T05:57:19.912Z,12.20
2017-12-06T05:59:48.900Z,15.20
2017-12-06T06:02:18.647Z,15.50
2017-12-06T06:04:47.631Z,12.77
2017-12-06T06:07:16.608Z,10.93
2017-12-06T06:09:45.599Z,10.67
2017-12-06T06:12:14.597Z,12.20
2017-12-06T06:14:43.552Z,11.57
2017-12-06T06:17:12.619Z,13.97
2017-12-06T06:19:42.345Z,9.07
2017-12-06T06:22:11.800Z,9.83
2017-12-06T06:24:40.884Z,12.43
2017-12-06T06:27:10.011Z,10.07
2017-12-06T06:29:39.388Z,10.00
2017-12-06T06:32:08.412Z,8.90
2017-12-06T06:34:38.144Z,8.80
2017-12-06T06:37:07.173Z,11.17
2017-12-06T06:39:36.572Z,10.70
2017-12-06T06:42:05.548Z,9.83
2017-12-06T06:44:34.942Z,9.60
2017-12-06T06:47:04.664Z,8.90
2017-12-06T06:49:33.661Z,10.77
2017-12-06T06:52:02.696Z,9.30
2017-12-06T06:54:31.681Z,10.40
2017-12-06T06:57:01.544Z,13.33
2017-12-06T06:59:31.809Z,10.87
2017-12-06T07:02:01.586Z,12.27
2017-12-06T07:04:31.369Z,10.70
2017-12-06T07:07:00.365Z,14.03
2017-12-06T07:09:29.366Z,8.00
2017-12-06T07:11:58.355Z,8.83
2017-12-06T07:14:27.779Z,8.40
2017-12-06T07:16:56.824Z,8.83
2017-12-06T07:19:25.773Z,7.23
2017-12-06T07:21:54.774Z,8.73
2017-12-06T07:24:24.142Z,7.20
2017-12-06T07:26:54.371Z,8.60
2017-12-06T07:29:23.808Z,6.43
2017-12-06T07:31:52.784Z,9.57
2017-12-06T07:34:21.893Z,7.93
2017-12-06T07:36:51.808Z,7.73
2017-12-06T07:39:21.001Z,11.00
2017-12-06T07:41:50.404Z,8.00
2017-12-06T07:44:19.775Z,11.97
2017-12-06T07:46:48.900Z,7.63
2017-12-06T07:49:19.432Z,7.90
2017-12-06T07:51:48.401Z,12.70
2017-12-06T07:54:17.863Z,10.00
2017-12-06T07:56:47.696Z,8.70
2017-12-06T07:59:16.663Z,9.50
2017-12-06T08:01:46.467Z,9.10
2017-12-06T08:04:15.447Z,10.60
2017-12-06T08:06:44.410Z,8.60
2017-12-06T08:09:13.815Z,8.07
2017-12-06T08:11:42.775Z,7.60
2017-12-06T08:14:11.769Z,8.03
2017-12-06T08:16:41.608Z,8.00
2017-12-06T08:19:10.639Z,8.00
2017-12-06T08:21:40.258Z,8.57
2017-12-06T08:24:09.672Z,8.40
2017-12-06T08:26:38.659Z,8.67
2017-12-06T08:29:08.449Z,8.30
2017-12-06T08:31:37.479Z,8.90
2017-12-06T08:34:07.246Z,8.23
2017-12-06T08:36:36.243Z,8.70
2017-12-06T08:39:05.604Z,7.57
2017-12-06T08:41:34.571Z,8.73
2017-12-06T08:44:03.525Z,8.93
2017-12-06T08:46:32.513Z,7.87
2017-12-06T08:49:02.152Z,9.23
2017-12-06T08:51:31.115Z,8.43
2017-12-06T08:54:00.071Z,8.73
2017-12-06T08:56:30.159Z,10.67
2017-12-06T08:58:59.521Z,11.07
2017-12-06T09:01:28.496Z,8.57
2017-12-06T09:03:57.660Z,12.30
2017-12-06T09:06:26.671Z,7.47
2017-12-06T09:08:55.655Z,7.23
2017-12-06T09:11:25.777Z,8.50
2017-12-06T09:13:54.747Z,6.53
2017-12-06T09:16:24.563Z,5.87
2017-12-06T09:18:53.887Z,6.20
2017-12-06T09:21:22.839Z,9.80
2017-12-06T09:23:52.738Z,7.27
2017-12-06T09:26:21.733Z,5.30
2017-12-06T09:28:51.453Z,6.33
2017-12-06T09:31:21.337Z,7.17
2017-12-06T09:33:50.360Z,4.73
2017-12-06T09:36:20.220Z,6.70
2017-12-06T09:38:49.195Z,6.63
2017-12-06T09:41:18.678Z,8.67
2017-12-06T09:43:47.643Z,7.00
2017-12-06T09:46:16.617Z,4.13
2017-12-06T09:48:45.623Z,5.00
2017-12-06T09:51:14.562Z,8.00
2017-12-06T09:53:43.559Z,7.37
2017-12-06T09:56:12.542Z,8.67
2017-12-06T09:58:41.524Z,3.50
2017-12-06T10:01:10.543Z,7.53
2017-12-06T10:03:39.581Z,6.07
2017-12-06T10:06:08.563Z,3.80
2017-12-06T10:08:38.001Z,3.40
2017-12-06T10:11:07.752Z,4.30
2017-12-06T10:13:36.712Z,6.47
2017-12-06T10:16:05.688Z,3.63
2017-12-06T10:18:35.449Z,4.27
2017-12-06T10:21:05.193Z,5.30
2017-12-06T10:23:34.544Z,4.80
2017-12-06T10:26:03.519Z,3.57
2017-12-06T10:28:32.472Z,8.10
2017-12-06T10:31:01.435Z,4.17
2017-12-06T10:33:30.878Z,4.10
2017-12-06T10:36:01.329Z,5.00
2017-12-06T10:38:30.276Z,4.83
2017-12-06T10:40:59.272Z,4.53
2017-12-06T10:43:28.822Z,4.03
2017-12-06T10:45:57.808Z,4.07
2017-12-06T10:48:27.538Z,4.63
2017-12-06T10:50:56.545Z,4.30
2017-12-06T10:53:25.491Z,7.63
2017-12-06T10:55:55.250Z,7.90
2017-12-06T10:58:24.621Z,4.10
2017-12-06T11:00:54.105Z,4.97
2017-12-06T11:03:23.097Z,5.67
2017-12-06T11:05:52.831Z,5.63
2017-12-06T11:08:21.897Z,4.93
2017-12-06T11:10:50.852Z,3.33
2017-12-06T11:13:20.700Z,4.57
2017-12-06T11:15:50.437Z,4.33
2017-12-06T11:18:19.787Z,6.40
2017-12-06T11:20:48.771Z,4.87
2017-12-06T11:23:17.744Z,2.83
2017-12-06T11:25:46.736Z,4.30
2017-12-06T11:28:15.722Z,6.93
2017-12-06T11:30:44.704Z,3.73
2017-12-06T11:33:13.683Z,4.53
2017-12-06T11:35:42.639Z,3.60
2017-12-06T11:38:13.807Z,4.43
2017-12-06T11:40:43.548Z,5.40
2017-12-06T11:43:12.637Z,5.50
2017-12-06T11:45:41.599Z,5.80
2017-12-06T11:48:11.369Z,3.87
2017-12-06T11:50:40.340Z,3.57
2017-12-06T11:53:09.477Z,3.67
2017-12-06T11:55:38.463Z,4.00
2017-12-06T11:58:07.433Z,3.23
2017-12-06T12:00:36.392Z,3.50
2017-12-06T12:03:05.426Z,4.63
2017-12-06T12:05:34.455Z,3.80
2017-12-06T12:08:03.446Z,5.30
2017-12-06T12:10:33.186Z,6.03
2017-12-06T12:13:02.154Z,4.90
2017-12-06T12:15:31.913Z,3.10
2017-12-06T12:18:01.637Z,2.97
2017-12-06T12:20:30.629Z,4.70
2017-12-06T12:23:00.359Z,2.27
2017-12-06T12:25:29.324Z,2.97
2017-12-06T12:27:58.315Z,4.13
2017-12-06T12:30:27.820Z,3.07
2017-12-06T12:32:57.570Z,8.20
2017-12-06T12:35:26.569Z,3.83
2017-12-06T12:37:55.511Z,2.77
2017-12-06T12:40:24.552Z,3.50
2017-12-06T12:42:54.667Z,2.67
2017-12-06T12:45:25.321Z,3.10
2017-12-06T12:47:55.354Z,3.90
2017-12-06T12:50:24.783Z,5.03
2017-12-06T12:52:53.775Z,4.97
2017-12-06T12:55:24.266Z,3.93
2017-12-06T12:57:53.638Z,2.50
2017-12-06T13:00:23.343Z,2.97
2017-12-06T13:02:52.734Z,3.67
2017-12-06T13:05:23.208Z,4.63
2017-12-06T13:07:52.621Z,3.37
2017-12-06T13:10:21.583Z,3.00
2017-12-06T13:12:51.453Z,2.73
2017-12-06T13:15:20.486Z,3.70
2017-12-06T13:17:50.261Z,2.57
2017-12-06T13:20:19.813Z,6.20
2017-12-06T13:22:49.536Z,3.30
2017-12-06T13:25:18.896Z,2.93
2017-12-06T13:27:47.872Z,3.27
2017-12-06T13:30:17.613Z,5.13
2017-12-06T13:32:47.359Z,3.70
2017-12-06T13:35:16.731Z,3.10
2017-12-06T13:37:46.448Z,8.20
2017-12-06T13:40:15.439Z,5.20
2017-12-06T13:42:44.422Z,2.60
2017-12-06T13:45:14.147Z,5.00
2017-12-06T13:47:43.896Z,3.60
2017-12-06T13:50:13.621Z,2.17
2017-12-06T13:52:42.570Z,3.10
2017-12-06T13:55:12.340Z,3.20
2017-12-06T13:57:41.705Z,5.63
2017-12-06T14:00:11.720Z,2.90
2017-12-06T14:02:40.689Z,5.67
2017-12-06T14:05:09.840Z,4.13
2017-12-06T14:07:39.229Z,2.53
2017-12-06T14:10:08.635Z,3.10
2017-12-06T14:12:37.636Z,3.13
2017-12-06T14:15:06.600Z,4.70
2017-12-06T14:17:35.581Z,3.57
2017-12-06T14:20:04.551Z,2.17
2017-12-06T14:22:33.613Z,3.33
2017-12-06T14:25:02.690Z,2.37
2017-12-06T14:27:31.591Z,3.40
2017-12-06T14:30:00.569Z,6.17
2017-12-06T14:32:29.536Z,3.00
2017-12-06T14:34:58.493Z,2.70
2017-12-06T14:37:27.473Z,4.10
2017-12-06T14:39:57.198Z,3.63
2017-12-06T14:42:26.171Z,4.63
2017-12-06T14:44:55.151Z,7.80
2017-12-06T14:47:24.099Z,6.93
2017-12-06T14:49:54.217Z,3.60
2017-12-06T14:52:23.584Z,6.03
2017-12-06T14:54:53.322Z,5.13
2017-12-06T14:57:22.281Z,3.63
2017-12-06T14:59:52.034Z,4.20
2017-12-06T15:02:21.751Z,5.97
2017-12-06T15:04:50.735Z,3.30
2017-12-06T15:07:19.727Z,9.43
2017-12-06T15:09:48.717Z,4.73
2017-12-06T15:12:18.546Z,7.20
2017-12-06T15:14:47.493Z,5.57
2017-12-06T15:17:16.469Z,7.00
2017-12-06T15:19:46.189Z,5.37
2017-12-06T15:22:15.932Z,5.60
2017-12-06T15:24:44.895Z,6.33
2017-12-06T15:27:13.869Z,3.80
2017-12-06T15:29:43.580Z,5.47
2017-12-06T15:32:13.352Z,5.87
2017-12-06T15:34:42.291Z,3.60
2017-12-06T15:37:11.373Z,4.60
2017-12-06T15:39:40.736Z,4.67
2017-12-06T15:42:10.185Z,6.53
2017-12-06T15:44:39.623Z,5.10
2017-12-06T15:47:08.647Z,5.77
2017-12-06T15:49:38.458Z,6.17
2017-12-06T15:52:07.437Z,6.30
2017-12-06T15:54:36.513Z,9.70
2017-12-06T15:57:05.447Z,6.23
2017-12-06T15:59:35.159Z,5.97
2017-12-06T16:02:04.177Z,9.40
2017-12-06T16:04:33.917Z,18.30
2017-12-06T16:07:03.739Z,17.20
2017-12-06T16:09:32.708Z,17.73
2017-12-06T16:12:01.689Z,7.40
2017-12-06T16:14:31.451Z,7.17
2017-12-06T16:17:00.431Z,6.63
2017-12-06T16:19:29.390Z,9.13
2017-12-06T16:21:58.376Z,8.33
2017-12-06T16:24:27.350Z,8.03
2017-12-06T16:26:56.341Z,8.03
2017-12-06T16:29:25.332Z,8.60
2017-12-06T16:31:54.328Z,6.70
2017-12-06T16:34:23.728Z,6.93
2017-12-06T16:37:04.537Z,7.73
2017-12-06T16:39:34.280Z,9.23
2017-12-06T16:42:03.420Z,7.47
2017-12-06T16:44:33.164Z,7.20
2017-12-06T16:47:02.540Z,7.50
2017-12-06T16:49:32.294Z,10.00
2017-12-06T16:52:01.324Z,8.50
2017-12-06T16:54:30.339Z,11.47
2017-12-06T16:57:00.098Z,6.33
2017-12-06T16:59:29.086Z,7.73
2017-12-06T17:01:58.159Z,8.93
2017-12-06T17:04:28.293Z,8.60
2017-12-06T17:06:58.048Z,7.30
2017-12-06T17:09:27.818Z,8.10
2017-12-06T17:11:56.812Z,7.33
2017-12-06T17:14:25.818Z,11.50
2017-12-06T17:16:54.857Z,12.80
2017-12-06T17:19:24.162Z,19.37
2017-12-06T17:21:53.142Z,23.33
2017-12-06T17:24:22.933Z,25.40
2017-12-06T17:26:52.672Z,12.13
2017-12-06T17:29:34.229Z,14.03
2017-12-06T17:32:03.210Z,10.63
2017-12-06T17:34:32.582Z,40.47
2017-12-06T17:37:02.354Z,64.17
2017-12-06T17:39:33.117Z,10.80
2017-12-06T17:42:02.264Z,8.90
2017-12-06T17:44:31.650Z,8.57
2017-12-06T17:47:00.603Z,10.97
2017-12-06T17:49:30.351Z,8.90
2017-12-06T17:52:00.134Z,7.67
2017-12-06T17:54:29.845Z,8.20
2017-12-06T17:56:58.929Z,6.40
2017-12-06T17:59:30.097Z,12.07
2017-12-06T18:02:01.138Z,10.90
2017-12-06T18:04:30.899Z,8.17
2017-12-06T18:06:59.946Z,11.50
2017-12-06T18:09:29.219Z,11.03
2017-12-06T18:12:00.440Z,9.17
2017-12-06T18:14:29.951Z,11.03
2017-12-06T18:16:58.943Z,8.13
2017-12-06T18:19:28.322Z,6.57
2017-12-06T18:21:58.096Z,8.10
2017-12-06T18:24:27.457Z,9.13
2017-12-06T18:26:56.960Z,6.57
2017-12-06T18:29:27.083Z,8.23
2017-12-06T18:31:56.098Z,8.00
2017-12-06T18:34:25.088Z,7.80
2017-12-06T18:36:54.565Z,10.37
2017-12-06T18:39:23.619Z,8.97
2017-12-06T18:41:53.393Z,13.13
2017-12-06T18:44:23.247Z,9.40
2017-12-06T18:46:53.016Z,8.30
2017-12-06T18:49:22.077Z,9.70
2017-12-06T18:51:51.495Z,9.30
2017-12-06T18:54:20.488Z,8.17
2017-12-06T18:56:50.302Z,11.30
2017-12-06T18:59:20.487Z,10.90
2017-12-06T19:01:49.523Z,7.17
2017-12-06T19:04:19.253Z,9.00
2017-12-06T19:06:49.091Z,15.43
2017-12-06T19:09:19.033Z,13.27
2017-12-06T19:11:48.809Z,10.70
2017-12-06T19:14:17.820Z,11.70
2017-12-06T19:16:47.658Z,16.20
2017-12-06T19:19:16.687Z,11.80
2017-12-06T19:21:45.746Z,13.00
2017-12-06T19:24:14.877Z,14.13
2017-12-06T19:26:43.915Z,16.33
2017-12-06T19:29:13.341Z,15.77
2017-12-06T19:31:42.375Z,14.30
2017-12-06T19:34:11.477Z,11.83
2017-12-06T19:36:40.695Z,16.17
2017-12-06T19:39:10.294Z,18.27
2017-12-06T19:41:39.447Z,14.57
2017-12-06T19:44:08.517Z,13.37
2017-12-06T19:46:37.920Z,11.17
2017-12-06T19:49:07.732Z,15.27
2017-12-06T19:51:36.765Z,10.20
2017-12-06T19:54:05.813Z,15.68
2017-12-06T19:56:35.614Z,14.23
2017-12-06T19:59:05.916Z,15.60
2017-12-06T20:01:35.254Z,14.87
2017-12-06T20:04:04.996Z,14.00
2017-12-06T20:06:34.066Z,16.63
2017-12-06T20:09:04.674Z,15.70
2017-12-06T20:11:34.483Z,13.13
2017-12-06T20:14:04.367Z,14.23
2017-12-06T20:16:34.704Z,14.73
2017-12-06T20:19:04.569Z,18.90
2017-12-06T20:21:35.834Z,13.30
2017-12-06T20:24:05.442Z,15.10
2017-12-06T20:26:35.094Z,14.70
2017-12-06T20:29:04.942Z,19.00
2017-12-06T20:31:39.599Z,15.30
2017-12-06T20:34:08.863Z,14.60
2017-12-06T20:36:41.376Z,16.53
2017-12-06T20:39:12.139Z,16.80
2017-12-06T20:41:41.181Z,16.13
2017-12-06T20:44:11.195Z,16.10
2017-12-06T20:46:40.937Z,16.93
2017-12-06T20:49:11.027Z,15.90
2017-12-06T20:51:41.424Z,18.50
2017-12-06T20:54:10.855Z,16.90
2017-12-06T20:56:40.737Z,14.23
2017-12-06T20:59:10.214Z,15.87
2017-12-06T21:01:39.226Z,14.30
2017-12-06T21:04:10.108Z,16.50
2017-12-06T21:06:39.115Z,17.57
2017-12-06T21:09:12.458Z,13.07
2017-12-06T21:11:41.597Z,15.57
2017-12-06T21:14:12.136Z,14.37
2017-12-06T21:16:41.173Z,14.53
2017-12-06T21:19:10.665Z,17.50
2017-12-06T21:21:40.461Z,15.80
2017-12-06T21:24:09.625Z,15.73
2017-12-06T21:26:39.075Z,14.20
2017-12-06T21:29:10.067Z,14.30
2017-12-06T21:31:39.075Z,15.53
2017-12-06T21:34:09.785Z,17.37
2017-12-06T21:36:38.831Z,17.57
2017-12-06T21:39:08.667Z,17.10
2017-12-06T21:41:37.800Z,18.17
2017-12-06T21:44:07.564Z,22.63
2017-12-06T21:46:36.743Z,16.97
2017-12-06T21:49:06.165Z,15.50
2017-12-06T21:51:35.163Z,15.50
2017-12-06T21:54:04.925Z,17.80
2017-12-06T21:56:33.967Z,13.20
2017-12-06T21:59:03.806Z,16.10
2017-12-06T22:01:32.871Z,16.50
2017-12-06T22:04:02.643Z,15.43
2017-12-06T22:06:31.645Z,17.40
2017-12-06T22:09:01.607Z,14.20
2017-12-06T22:11:30.574Z,15.10
2017-12-06T22:13:59.581Z,14.60
2017-12-06T22:16:29.323Z,14.30
2017-12-06T22:18:58.316Z,13.40
2017-12-06T22:21:27.302Z,13.63
2017-12-06T22:23:56.296Z,12.00
2017-12-06T22:26:25.722Z,20.33
2017-12-06T22:28:54.744Z,14.33
2017-12-06T22:31:24.113Z,14.30
2017-12-06T22:33:53.528Z,16.00
2017-12-06T22:36:23.282Z,16.70
2017-12-06T22:38:52.656Z,16.07
2017-12-06T22:41:21.664Z,15.57
2017-12-06T22:43:50.692Z,15.47
2017-12-06T22:46:19.724Z,12.33
2017-12-06T22:48:49.488Z,14.00
2017-12-06T22:51:18.453Z,13.07
2017-12-06T22:53:47.461Z,17.40
2017-12-06T22:56:16.484Z,12.63
2017-12-06T22:58:45.538Z,20.30
2017-12-06T23:01:14.531Z,13.30
2017-12-06T23:03:43.531Z,14.70
2017-12-06T23:06:12.512Z,15.20
2017-12-06T23:08:41.513Z,15.13
2017-12-06T23:11:10.532Z,13.40
2017-12-06T23:13:39.494Z,12.10
2017-12-06T23:16:08.926Z,10.40
2017-12-06T23:18:37.863Z,14.70
2017-12-06T23:21:07.595Z,15.97
2017-12-06T23:23:37.361Z,10.57
2017-12-06T23:26:06.336Z,10.03
2017-12-06T23:28:36.248Z,13.40
2017-12-06T23:31:06.002Z,10.90
2017-12-06T23:33:35.744Z,13.27
2017-12-06T23:36:04.735Z,9.77
2017-12-06T23:38:33.714Z,11.90
2017-12-06T23:41:02.668Z,9.97
2017-12-06T23:43:32.484Z,11.97
2017-12-06T23:46:02.270Z,8.30
2017-12-06T23:48:31.615Z,10.63
2017-12-06T23:51:00.629Z,20.17
2017-12-06T23:53:29.676Z,12.00
2017-12-06T23:55:58.675Z,9.27
2017-12-06T23:58:27.655Z,8.63
